sensor_id;sensor_type;location;lat;lon;timestamp;temperature;humidity
29007;DHT22;16104;48.642;9.008;2023-03-08T00:04:00;6.10;50.10
29007;DHT22;16104;48.642;9.008;2023-03-08T00:08:57;6.10;50.20
29007;DHT22;16104;48.642;9.008;2023-03-08T00:13:53;6.10;50.30
29007;DHT22;16104;48.642;9.008;2023-03-08T00:18:49;6.10;50.40
29007;DHT22;16104;48.642;9.008;2023-03-08T00:23:45;6.00;50.50
29007;DHT22;16104;48.642;9.008;2023-03-08T00:28:40;6.00;50.50
29007;DHT22;16104;48.642;9.008;2023-03-08T00:33:36;6.00;50.60
29007;DHT22;16104;48.642;9.008;2023-03-08T00:38:33;6.00;50.60
29007;DHT22;16104;48.642;9.008;2023-03-08T00:43:29;6.00;50.70
29007;DHT22;16104;48.642;9.008;2023-03-08T00:48:25;6.00;50.70
29007;DHT22;16104;48.642;9.008;2023-03-08T00:53:21;5.90;50.70
29007;DHT22;16104;48.642;9.008;2023-03-08T00:58:17;5.90;50.70
29007;DHT22;16104;48.642;9.008;2023-03-08T02:04:17;5.40;51.50
29007;DHT22;16104;48.642;9.008;2023-03-08T02:09:12;5.30;51.50
29007;DHT22;16104;48.642;9.008;2023-03-08T02:14:08;5.30;51.60
29007;DHT22;16104;48.642;9.008;2023-03-08T03:00:41;5.20;52.40
29007;DHT22;16104;48.642;9.008;2023-03-08T03:05:44;5.20;52.30
29007;DHT22;16104;48.642;9.008;2023-03-08T03:10:39;5.20;52.30
29007;DHT22;16104;48.642;9.008;2023-03-08T04:01:27;5.40;52.10
29007;DHT22;16104;48.642;9.008;2023-03-08T04:06:25;5.40;52.10
29007;DHT22;16104;48.642;9.008;2023-03-08T04:11:24;5.40;52.10
29007;DHT22;16104;48.642;9.008;2023-03-08T04:16:25;5.40;52.20
29007;DHT22;16104;48.642;9.008;2023-03-08T04:21:22;5.40;52.20
29007;DHT22;16104;48.642;9.008;2023-03-08T04:26:18;5.40;52.20
29007;DHT22;16104;48.642;9.008;2023-03-08T04:31:23;5.30;52.30
29007;DHT22;16104;48.642;9.008;2023-03-08T04:36:19;5.30;52.40
29007;DHT22;16104;48.642;9.008;2023-03-08T04:41:15;5.30;52.40
29007;DHT22;16104;48.642;9.008;2023-03-08T04:46:11;5.30;52.50
29007;DHT22;16104;48.642;9.008;2023-03-08T04:51:09;5.30;52.60
29007;DHT22;16104;48.642;9.008;2023-03-08T04:56:06;5.30;52.70
29007;DHT22;16104;48.642;9.008;2023-03-08T05:01:16;5.30;52.70
29007;DHT22;16104;48.642;9.008;2023-03-08T05:06:12;5.30;52.90
29007;DHT22;16104;48.642;9.008;2023-03-08T05:11:16;5.30;52.80
29007;DHT22;16104;48.642;9.008;2023-03-08T05:16:12;5.40;52.90
29007;DHT22;16104;48.642;9.008;2023-03-08T05:21:13;5.40;52.90
29007;DHT22;16104;48.642;9.008;2023-03-08T05:26:14;5.40;53.00
29007;DHT22;16104;48.642;9.008;2023-03-08T05:31:12;5.40;53.00
29007;DHT22;16104;48.642;9.008;2023-03-08T05:36:10;5.40;52.90
29007;DHT22;16104;48.642;9.008;2023-03-08T05:41:07;5.50;53.00
29007;DHT22;16104;48.642;9.008;2023-03-08T05:46:05;5.50;53.00
29007;DHT22;16104;48.642;9.008;2023-03-08T05:51:05;5.50;53.00
29007;DHT22;16104;48.642;9.008;2023-03-08T05:56:21;5.60;53.10
29007;DHT22;16104;48.642;9.008;2023-03-08T06:01:21;5.60;53.40
29007;DHT22;16104;48.642;9.008;2023-03-08T06:06:19;5.60;53.30
29007;DHT22;16104;48.642;9.008;2023-03-08T06:11:15;5.70;54.00
29007;DHT22;16104;48.642;9.008;2023-03-08T06:16:10;5.70;53.40
29007;DHT22;16104;48.642;9.008;2023-03-08T06:26:04;5.80;53.50
29007;DHT22;16104;48.642;9.008;2023-03-08T06:31:00;5.80;53.60
29007;DHT22;16104;48.642;9.008;2023-03-08T06:35:56;5.90;53.70
29007;DHT22;16104;48.642;9.008;2023-03-08T06:40:52;5.90;53.70
29007;DHT22;16104;48.642;9.008;2023-03-08T06:45:48;6.00;53.70
29007;DHT22;16104;48.642;9.008;2023-03-08T06:50:44;6.00;53.70
29007;DHT22;16104;48.642;9.008;2023-03-08T06:55:40;6.10;53.70
29007;DHT22;16104;48.642;9.008;2023-03-08T07:00:36;6.10;53.80
29007;DHT22;16104;48.642;9.008;2023-03-08T07:05:32;6.20;53.80
29007;DHT22;16104;48.642;9.008;2023-03-08T07:10:27;6.30;53.90
29007;DHT22;16104;48.642;9.008;2023-03-08T07:15:23;6.30;53.80
29007;DHT22;16104;48.642;9.008;2023-03-08T07:20:20;6.40;53.90
29007;DHT22;16104;48.642;9.008;2023-03-08T07:25:18;6.40;53.80
29007;DHT22;16104;48.642;9.008;2023-03-08T07:30:15;6.50;54.00
29007;DHT22;16104;48.642;9.008;2023-03-08T07:35:13;6.60;54.30
29007;DHT22;16104;48.642;9.008;2023-03-08T07:40:09;6.60;54.60
29007;DHT22;16104;48.642;9.008;2023-03-08T07:45:05;6.70;54.80
29007;DHT22;16104;48.642;9.008;2023-03-08T07:50:02;6.70;55.00
29007;DHT22;16104;48.642;9.008;2023-03-08T07:54:57;6.70;55.00
29007;DHT22;16104;48.642;9.008;2023-03-08T07:59:53;6.70;55.10
29007;DHT22;16104;48.642;9.008;2023-03-08T08:04:48;6.70;55.10
29007;DHT22;16104;48.642;9.008;2023-03-08T08:09:44;6.80;55.10
29007;DHT22;16104;48.642;9.008;2023-03-08T08:14:40;6.80;55.10
29007;DHT22;16104;48.642;9.008;2023-03-08T08:19:36;6.90;55.20
29007;DHT22;16104;48.642;9.008;2023-03-08T08:24:32;7.00;55.50
29007;DHT22;16104;48.642;9.008;2023-03-08T08:29:28;7.10;55.50
29007;DHT22;16104;48.642;9.008;2023-03-08T08:34:24;7.20;55.60
29007;DHT22;16104;48.642;9.008;2023-03-08T08:39:20;7.20;55.50
29007;DHT22;16104;48.642;9.008;2023-03-08T08:44:16;7.30;55.50
29007;DHT22;16104;48.642;9.008;2023-03-08T08:49:12;7.40;55.50
29007;DHT22;16104;48.642;9.008;2023-03-08T08:54:07;7.50;55.60
29007;DHT22;16104;48.642;9.008;2023-03-08T08:59:03;7.60;55.60
29007;DHT22;16104;48.642;9.008;2023-03-08T09:03:59;7.70;55.70
29007;DHT22;16104;48.642;9.008;2023-03-08T09:08:56;7.80;55.70
29007;DHT22;16104;48.642;9.008;2023-03-08T09:13:53;8.00;55.70
29007;DHT22;16104;48.642;9.008;2023-03-08T09:18:49;8.00;55.70
29007;DHT22;16104;48.642;9.008;2023-03-08T09:23:45;8.10;55.80
29007;DHT22;16104;48.642;9.008;2023-03-08T09:28:41;8.20;56.00
29007;DHT22;16104;48.642;9.008;2023-03-08T09:33:45;8.30;56.00
29007;DHT22;16104;48.642;9.008;2023-03-08T09:38:41;8.30;56.00
29007;DHT22;16104;48.642;9.008;2023-03-08T09:48:43;8.50;56.30
29007;DHT22;16104;48.642;9.008;2023-03-08T09:53:55;8.60;56.50
29007;DHT22;16104;48.642;9.008;2023-03-08T09:58:57;8.70;56.90
29007;DHT22;16104;48.642;9.008;2023-03-08T10:14:35;9.00;58.00
29007;DHT22;16104;48.642;9.008;2023-03-08T10:20:00;9.10;57.60
29007;DHT22;16104;48.642;9.008;2023-03-08T10:25:13;9.20;58.00
29007;DHT22;16104;48.642;9.008;2023-03-08T10:30:15;9.30;58.60
29007;DHT22;16104;48.642;9.008;2023-03-08T10:35:11;9.40;58.70
29007;DHT22;16104;48.642;9.008;2023-03-08T10:40:13;9.50;59.20
29007;DHT22;16104;48.642;9.008;2023-03-08T10:45:17;9.60;59.50
29007;DHT22;16104;48.642;9.008;2023-03-08T10:50:21;9.80;60.10
29007;DHT22;16104;48.642;9.008;2023-03-08T10:55:28;10.00;60.40
29007;DHT22;16104;48.642;9.008;2023-03-08T11:05:27;10.30;60.90
29007;DHT22;16104;48.642;9.008;2023-03-08T11:10:27;10.50;61.20
29007;DHT22;16104;48.642;9.008;2023-03-08T11:15:23;10.70;61.00
29007;DHT22;16104;48.642;9.008;2023-03-08T11:20:39;10.90;61.40
29007;DHT22;16104;48.642;9.008;2023-03-08T11:25:57;11.10;61.00
29007;DHT22;16104;48.642;9.008;2023-03-08T11:31:27;11.30;61.00
29007;DHT22;16104;48.642;9.008;2023-03-08T11:57:19;12.30;59.20
29007;DHT22;16104;48.642;9.008;2023-03-08T12:02:19;12.40;58.90
29007;DHT22;16104;48.642;9.008;2023-03-08T12:07:22;12.50;58.80
29007;DHT22;16104;48.642;9.008;2023-03-08T12:12:38;12.70;58.70
29007;DHT22;16104;48.642;9.008;2023-03-08T12:17:40;12.80;58.70
29007;DHT22;16104;48.642;9.008;2023-03-08T12:32:40;13.00;58.30
29007;DHT22;16104;48.642;9.008;2023-03-08T12:37:36;13.10;58.20
29007;DHT22;16104;48.642;9.008;2023-03-08T12:42:37;13.20;58.20
29007;DHT22;16104;48.642;9.008;2023-03-08T12:47:33;13.40;58.30
29007;DHT22;16104;48.642;9.008;2023-03-08T12:52:32;13.40;58.10
29007;DHT22;16104;48.642;9.008;2023-03-08T12:57:36;13.50;58.10
29007;DHT22;16104;48.642;9.008;2023-03-08T13:02:37;13.60;57.90
29007;DHT22;16104;48.642;9.008;2023-03-08T13:07:38;13.60;57.70
29007;DHT22;16104;48.642;9.008;2023-03-08T13:23:21;13.80;58.70
29007;DHT22;16104;48.642;9.008;2023-03-08T13:28:22;13.90;57.80
29007;DHT22;16104;48.642;9.008;2023-03-08T13:33:32;13.90;57.70
29007;DHT22;16104;48.642;9.008;2023-03-08T13:38:30;13.90;57.70
29007;DHT22;16104;48.642;9.008;2023-03-08T13:43:29;13.90;57.50
29007;DHT22;16104;48.642;9.008;2023-03-08T13:48:28;13.90;57.70
29007;DHT22;16104;48.642;9.008;2023-03-08T13:53:29;14.00;58.10
29007;DHT22;16104;48.642;9.008;2023-03-08T13:58:51;14.20;58.20
29007;DHT22;16104;48.642;9.008;2023-03-08T14:03:50;14.40;58.10
29007;DHT22;16104;48.642;9.008;2023-03-08T14:08:46;14.70;57.50
29007;DHT22;16104;48.642;9.008;2023-03-08T14:13:45;15.00;57.00
29007;DHT22;16104;48.642;9.008;2023-03-08T14:18:41;15.20;56.30
29007;DHT22;16104;48.642;9.008;2023-03-08T14:23:40;15.30;55.70
29007;DHT22;16104;48.642;9.008;2023-03-08T14:28:39;15.50;55.50
29007;DHT22;16104;48.642;9.008;2023-03-08T14:33:35;15.60;55.60
29007;DHT22;16104;48.642;9.008;2023-03-08T14:38:31;15.80;55.70
29007;DHT22;16104;48.642;9.008;2023-03-08T14:43:28;15.90;55.10
29007;DHT22;16104;48.642;9.008;2023-03-08T14:48:34;15.90;55.00
29007;DHT22;16104;48.642;9.008;2023-03-08T14:53:33;15.90;55.50
29007;DHT22;16104;48.642;9.008;2023-03-08T14:58:31;15.80;55.50
29007;DHT22;16104;48.642;9.008;2023-03-08T15:03:28;15.60;55.50
29007;DHT22;16104;48.642;9.008;2023-03-08T15:08:24;15.50;55.60
29007;DHT22;16104;48.642;9.008;2023-03-08T15:13:22;15.40;56.20
29007;DHT22;16104;48.642;9.008;2023-03-08T15:18:17;15.30;56.20
29007;DHT22;16104;48.642;9.008;2023-03-08T15:23:34;15.30;56.20
29007;DHT22;16104;48.642;9.008;2023-03-08T15:28:30;15.30;56.20
29007;DHT22;16104;48.642;9.008;2023-03-08T15:33:26;15.30;55.80
29007;DHT22;16104;48.642;9.008;2023-03-08T15:38:21;15.20;55.70
29007;DHT22;16104;48.642;9.008;2023-03-08T15:43:18;15.10;55.80
29007;DHT22;16104;48.642;9.008;2023-03-08T15:48:16;15.10;56.00
29007;DHT22;16104;48.642;9.008;2023-03-08T15:53:12;15.10;56.00
29007;DHT22;16104;48.642;9.008;2023-03-08T15:58:08;15.00;55.90
29007;DHT22;16104;48.642;9.008;2023-03-08T16:03:03;15.00;55.90
29007;DHT22;16104;48.642;9.008;2023-03-08T16:08:01;15.00;55.90
29007;DHT22;16104;48.642;9.008;2023-03-08T16:12:56;14.90;55.80
29007;DHT22;16104;48.642;9.008;2023-03-08T16:17:52;14.90;56.10
29007;DHT22;16104;48.642;9.008;2023-03-08T16:22:47;14.90;56.30
29007;DHT22;16104;48.642;9.008;2023-03-08T16:27:44;14.80;56.70
29007;DHT22;16104;48.642;9.008;2023-03-08T16:32:39;14.70;57.20
29007;DHT22;16104;48.642;9.008;2023-03-08T16:37:35;14.60;57.60
29007;DHT22;16104;48.642;9.008;2023-03-08T16:42:30;14.50;58.00
29007;DHT22;16104;48.642;9.008;2023-03-08T16:47:26;14.40;58.20
29007;DHT22;16104;48.642;9.008;2023-03-08T16:52:26;14.30;58.60
29007;DHT22;16104;48.642;9.008;2023-03-08T16:57:22;14.10;58.80
29007;DHT22;16104;48.642;9.008;2023-03-08T17:02:20;14.10;59.50
29007;DHT22;16104;48.642;9.008;2023-03-08T17:07:16;14.00;59.70
29007;DHT22;16104;48.642;9.008;2023-03-08T17:12:11;13.90;60.00
29007;DHT22;16104;48.642;9.008;2023-03-08T17:17:08;13.80;60.40
29007;DHT22;16104;48.642;9.008;2023-03-08T17:22:04;13.70;60.70
29007;DHT22;16104;48.642;9.008;2023-03-08T17:27:00;13.60;61.00
29007;DHT22;16104;48.642;9.008;2023-03-08T17:31:55;13.60;61.00
29007;DHT22;16104;48.642;9.008;2023-03-08T17:36:51;13.60;61.10
29007;DHT22;16104;48.642;9.008;2023-03-08T17:41:47;13.50;61.90
29007;DHT22;16104;48.642;9.008;2023-03-08T17:46:42;13.50;61.80
29007;DHT22;16104;48.642;9.008;2023-03-08T17:51:38;13.50;62.10
29007;DHT22;16104;48.642;9.008;2023-03-08T17:56:33;13.40;62.50
29007;DHT22;16104;48.642;9.008;2023-03-08T18:01:30;13.40;63.30
29007;DHT22;16104;48.642;9.008;2023-03-08T18:06:37;13.30;62.60
29007;DHT22;16104;48.642;9.008;2023-03-08T18:11:33;13.30;62.70
29007;DHT22;16104;48.642;9.008;2023-03-08T18:16:32;13.30;62.50
29007;DHT22;16104;48.642;9.008;2023-03-08T18:21:30;13.20;62.50
29007;DHT22;16104;48.642;9.008;2023-03-08T18:26:26;13.20;63.40
29007;DHT22;16104;48.642;9.008;2023-03-08T18:31:23;13.20;62.10
29007;DHT22;16104;48.642;9.008;2023-03-08T18:36:20;13.20;62.10
29007;DHT22;16104;48.642;9.008;2023-03-08T18:41:22;13.10;62.50
29007;DHT22;16104;48.642;9.008;2023-03-08T18:46:21;13.10;62.70
29007;DHT22;16104;48.642;9.008;2023-03-08T18:51:22;13.10;62.50
29007;DHT22;16104;48.642;9.008;2023-03-08T18:56:18;13.10;62.20
29007;DHT22;16104;48.642;9.008;2023-03-08T19:01:15;13.10;62.30
29007;DHT22;16104;48.642;9.008;2023-03-08T19:06:11;13.00;62.30
29007;DHT22;16104;48.642;9.008;2023-03-08T19:11:12;13.00;62.30
29007;DHT22;16104;48.642;9.008;2023-03-08T19:21:19;12.90;63.30
29007;DHT22;16104;48.642;9.008;2023-03-08T19:26:23;12.90;63.20
29007;DHT22;16104;48.642;9.008;2023-03-08T19:31:33;12.90;64.00
29007;DHT22;16104;48.642;9.008;2023-03-08T19:36:28;12.80;63.70
29007;DHT22;16104;48.642;9.008;2023-03-08T19:41:24;12.80;63.90
29007;DHT22;16104;48.642;9.008;2023-03-08T19:46:20;12.70;64.10
29007;DHT22;16104;48.642;9.008;2023-03-08T19:51:17;12.70;64.40
29007;DHT22;16104;48.642;9.008;2023-03-08T19:56:17;12.60;65.10
29007;DHT22;16104;48.642;9.008;2023-03-08T20:01:15;12.60;65.30
29007;DHT22;16104;48.642;9.008;2023-03-08T20:06:19;12.50;65.40
29007;DHT22;16104;48.642;9.008;2023-03-08T20:11:15;12.50;66.00
29007;DHT22;16104;48.642;9.008;2023-03-08T20:16:11;12.50;66.90
29007;DHT22;16104;48.642;9.008;2023-03-08T20:21:06;12.50;67.50
29007;DHT22;16104;48.642;9.008;2023-03-08T20:26:02;12.40;68.00
29007;DHT22;16104;48.642;9.008;2023-03-08T20:30:58;12.50;68.50
29007;DHT22;16104;48.642;9.008;2023-03-08T20:36:00;12.50;68.20
29007;DHT22;16104;48.642;9.008;2023-03-08T20:41:06;12.60;69.00
29007;DHT22;16104;48.642;9.008;2023-03-08T20:46:07;12.60;69.20
29007;DHT22;16104;48.642;9.008;2023-03-08T20:51:05;12.70;68.30
29007;DHT22;16104;48.642;9.008;2023-03-08T20:56:10;12.70;68.20
29007;DHT22;16104;48.642;9.008;2023-03-08T21:01:15;12.80;68.80
29007;DHT22;16104;48.642;9.008;2023-03-08T21:06:16;12.80;68.50
29007;DHT22;16104;48.642;9.008;2023-03-08T21:11:13;12.90;68.60
29007;DHT22;16104;48.642;9.008;2023-03-08T21:16:13;12.90;68.10
29007;DHT22;16104;48.642;9.008;2023-03-08T21:21:23;13.00;68.40
29007;DHT22;16104;48.642;9.008;2023-03-08T21:26:20;13.00;68.60
29007;DHT22;16104;48.642;9.008;2023-03-08T21:31:16;13.00;68.40
29007;DHT22;16104;48.642;9.008;2023-03-08T21:36:14;13.00;68.30
29007;DHT22;16104;48.642;9.008;2023-03-08T21:41:22;13.00;68.40
29007;DHT22;16104;48.642;9.008;2023-03-08T21:46:18;13.00;69.10
29007;DHT22;16104;48.642;9.008;2023-03-08T21:51:14;13.00;68.60
29007;DHT22;16104;48.642;9.008;2023-03-08T21:56:11;13.00;68.60
29007;DHT22;16104;48.642;9.008;2023-03-08T22:01:17;13.00;68.80
29007;DHT22;16104;48.642;9.008;2023-03-08T22:06:12;13.00;69.40
29007;DHT22;16104;48.642;9.008;2023-03-08T22:11:08;13.00;68.80
29007;DHT22;16104;48.642;9.008;2023-03-08T22:21:01;13.10;68.70
29007;DHT22;16104;48.642;9.008;2023-03-08T22:25:57;13.10;68.60
29007;DHT22;16104;48.642;9.008;2023-03-08T22:30:53;13.10;68.40
29007;DHT22;16104;48.642;9.008;2023-03-08T22:35:48;13.10;68.40
29007;DHT22;16104;48.642;9.008;2023-03-08T22:40:44;13.10;68.20
29007;DHT22;16104;48.642;9.008;2023-03-08T22:45:39;13.20;68.10
29007;DHT22;16104;48.642;9.008;2023-03-08T22:50:35;13.20;68.00
29007;DHT22;16104;48.642;9.008;2023-03-08T22:55:31;13.20;67.70
29007;DHT22;16104;48.642;9.008;2023-03-08T23:00:26;13.20;67.80
29007;DHT22;16104;48.642;9.008;2023-03-08T23:05:22;13.20;67.30
29007;DHT22;16104;48.642;9.008;2023-03-08T23:10:18;13.30;67.30
29007;DHT22;16104;48.642;9.008;2023-03-08T23:15:14;13.20;67.20
29007;DHT22;16104;48.642;9.008;2023-03-08T23:20:10;13.20;67.30
29007;DHT22;16104;48.642;9.008;2023-03-08T23:25:06;13.20;67.10
29007;DHT22;16104;48.642;9.008;2023-03-08T23:30:03;13.20;67.30
29007;DHT22;16104;48.642;9.008;2023-03-08T23:34:59;13.20;67.50
29007;DHT22;16104;48.642;9.008;2023-03-08T23:39:54;13.20;67.50
29007;DHT22;16104;48.642;9.008;2023-03-08T23:44:50;13.10;67.60
29007;DHT22;16104;48.642;9.008;2023-03-08T23:49:47;13.10;67.40
29007;DHT22;16104;48.642;9.008;2023-03-08T23:54:43;13.10;67.60
29007;DHT22;16104;48.642;9.008;2023-03-08T23:59:38;13.10;67.50
